Terminal Aerodrome Forecast
Issued by NWS Greer, SC

Home | Current Version | Previous Version | Text Only | Print | Product List | Glossary On
Versions: 1 2 3 4 5 6 7 8 9 10 11 12 13 14 15 16 17 18 19 20 21 22 23 24 25 26 27 28 29 30 31
000
FTUS42 KGSP 150100 AAA
TAFGSP
TAF AMD
KGSP 150101Z 1501/1524 07006KT P6SM OVC019
     FM150800 06003KT 5SM BR OVC020
     FM151300 07003KT P6SM BKN025
     FM151800 24005KT P6SM BKN045 PROB30 1518/1522 6SM -SHRA OVC040=

USA.gov is the U.S. government's official web portal to all federal, state and local government web resources and services.